Arnott, Wisconsin
Current Conditions -  °F | °C
As of 4:15 AM on Saturday 01 Nov 2014 (Local Time) from KSTE Reporting Station
Clear Clear  
Wind Chill: 16°   Ceiling: Unl
Heat Index: 16°   Visibility: 10mi
Dew Point: 13°   Wind: 3mph
Humidity: 89%   Direction: 50°NE
Pressure: 30.46"   Gusts: NA
Location:  44.5531°N, 89.5186°W
Report Text: KSTE 010915Z AUTO 05003KT 10SM CLR M09/M10 A3046 RMK AO2 T10901105
Loading
Personal Weather Stations






























Interactive Weather Map
Tropical Storm Tracking
New forecast layout! Learn more

10-Day Weather Forecast

Advertisements
Track Severe Weather on mobile